Time;durP1;ratioP1;P1;durP2;ratioP2;P2;SDS_P1;SDS_P2;PMS_P1;PMS_P2;Temp;Humidity;BMP_temperature;BMP_pressure;BME280_temperature;BME280_humidity;BME280_pressure;Samples;Min_cycle;Max_cycle;Signal;HPM_P1;HPM_P2
2023/08/29 00:00:03;;;;;;;1.05;0.90;;;;;;;23.15;nan;62008.50;5034827;28;20172;-66
2023/08/29 00:02:31;;;;;;;0.95;0.95;;;;;;;22.95;nan;61946.66;5034483;28;20203;-66
2023/08/29 00:04:57;;;;;;;0.98;0.98;;;;;;;22.93;nan;62085.13;5034579;28;20179;-65
2023/08/29 00:07:23;;;;;;;0.95;0.95;;;;;;;23.09;nan;62010.06;5039273;28;20235;-66
2023/08/29 00:09:48;;;;;;;0.60;0.60;;;;;;;22.89;nan;61990.47;5036990;28;20586;-66
2023/08/29 00:12:14;;;;;;;1.13;1.05;;;;;;;22.97;nan;62126.75;5033117;28;20241;-66
2023/08/29 00:14:40;;;;;;;2.50;1.23;;;;;;;22.87;nan;61945.97;5034599;28;20193;-64
2023/08/29 00:17:06;;;;;;;0.93;0.93;;;;;;;22.83;nan;61951.84;5034130;28;20191;-67
2023/08/29 00:19:32;;;;;;;0.90;0.90;;;;;;;22.87;nan;61938.72;5034494;28;20178;-66
2023/08/29 00:21:58;;;;;;;0.68;0.68;;;;;;;23.00;nan;62087.88;5034079;28;20591;-66
2023/08/29 00:24:24;;;;;;;0.47;0.47;;;;;;;22.80;nan;62065.66;5034431;28;20172;-65
2023/08/29 00:26:50;;;;;;;0.80;0.80;;;;;;;22.97;nan;61939.09;5034344;28;20182;-64
2023/08/29 00:29:16;;;;;;;0.82;0.82;;;;;;;22.88;nan;61986.19;5034197;28;20172;-67
2023/08/29 00:31:41;;;;;;;0.90;0.90;;;;;;;22.71;nan;61927.75;5033669;28;20642;-64
2023/08/29 00:34:07;;;;;;;0.77;0.77;;;;;;;22.78;nan;62058.19;5034070;28;20229;-65
2023/08/29 00:36:32;;;;;;;0.77;0.77;;;;;;;22.69;nan;62069.34;5033981;28;20654;-67
2023/08/29 00:38:57;;;;;;;1.42;1.20;;;;;;;22.54;nan;61919.41;5033603;28;20203;-67
2023/08/29 00:41:23;;;;;;;1.65;0.80;;;;;;;22.47;nan;61862.53;5034089;28;20199;-65
2023/08/29 00:43:48;;;;;;;0.98;0.98;;;;;;;22.39;nan;61895.13;5033592;28;20230;-67
2023/08/29 00:46:15;;;;;;;0.73;0.73;;;;;;;22.58;nan;61905.72;5032314;28;20262;-67
2023/08/29 00:48:41;;;;;;;1.17;1.08;;;;;;;22.43;nan;61927.75;5033611;28;20186;-66
2023/08/29 00:51:07;;;;;;;0.80;0.80;;;;;;;22.20;nan;61982.28;5032122;28;20168;-67
2023/08/29 00:53:34;;;;;;;0.70;0.70;;;;;;;22.22;nan;62049.66;5033575;28;20151;-66
2023/08/29 00:56:00;;;;;;;0.88;0.88;;;;;;;22.27;nan;61891.34;5033241;28;20550;-67
2023/08/29 00:58:26;;;;;;;0.80;0.80;;;;;;;22.22;nan;61875.81;5033216;28;20210;-64
2023/08/29 01:00:52;;;;;;;1.05;1.05;;;;;;;22.07;nan;61972.72;5032907;28;20227;-66
2023/08/29 01:03:17;;;;;;;1.30;1.30;;;;;;;22.14;nan;61871.38;5032429;28;20182;-66
2023/08/29 01:05:43;;;;;;;1.08;1.08;;;;;;;22.09;nan;61863.09;5033400;28;20255;-67
2023/08/29 01:08:08;;;;;;;1.55;1.33;;;;;;;22.23;nan;61845.16;5032716;28;20224;-65
2023/08/29 01:11:16;;;;;;;0.80;0.80;;;;;;;22.12;nan;61937.31;5033013;28;20171;-67
2023/08/29 01:13:53;;;;;;;1.25;1.15;;;;;;;22.08;nan;61906.75;5018599;28;20195;-67
2023/08/29 01:16:23;;;;;;;0.80;0.80;;;;;;;21.98;nan;61836.09;5033080;28;20202;-67
2023/08/29 01:18:50;;;;;;;1.00;1.00;;;;;;;21.67;nan;61782.13;5031092;28;20167;-65
2023/08/29 01:22:09;;;;;;;0.90;0.90;;;;;;;21.82;nan;61918.81;5039877;28;20720;-66
2023/08/29 01:24:44;;;;;;;0.80;0.80;;;;;;;21.78;nan;61831.03;4988080;28;20216;-64
2023/08/29 01:27:09;;;;;;;0.60;0.60;;;;;;;21.87;nan;61903.69;5031278;28;20200;-67
2023/08/29 01:29:36;;;;;;;0.93;0.93;;;;;;;21.87;nan;61899.03;5037541;28;20191;-67
2023/08/29 01:32:03;;;;;;;0.60;0.60;;;;;;;21.95;nan;61939.38;5038935;28;20179;-65
2023/08/29 01:34:29;;;;;;;0.70;0.70;;;;;;;21.98;nan;61862.13;5040516;28;20209;-66
2023/08/29 01:36:55;;;;;;;1.20;1.20;;;;;;;21.78;nan;61815.44;5041030;28;20189;-66
2023/08/29 01:39:20;;;;;;;0.93;0.93;;;;;;;21.96;nan;61945.72;5038730;28;20180;-65
2023/08/29 01:41:45;;;;;;;0.88;0.88;;;;;;;21.85;nan;61922.22;5036944;28;20191;-66
2023/08/29 01:44:11;;;;;;;0.60;0.60;;;;;;;21.64;nan;61919.16;5034784;28;20179;-66
2023/08/29 01:46:37;;;;;;;1.73;1.63;;;;;;;21.58;nan;61884.88;5039475;28;20221;-67
2023/08/29 01:49:03;;;;;;;1.25;1.17;;;;;;;21.66;nan;61804.38;5039449;28;20195;-66
2023/08/29 01:51:29;;;;;;;1.30;1.20;;;;;;;21.65;nan;61925.47;5034032;28;20191;-67
2023/08/29 01:53:56;;;;;;;1.20;1.10;;;;;;;21.41;nan;61903.97;5037304;28;20193;-66
2023/08/29 01:56:24;;;;;;;0.85;0.85;;;;;;;21.25;nan;61922.16;5038246;28;20195;-67
2023/08/29 01:58:53;;;;;;;0.95;0.95;;;;;;;21.31;nan;61739.25;5038370;28;20266;-67
2023/08/29 02:01:19;;;;;;;0.90;0.90;;;;;;;21.03;nan;61815.13;5040225;28;20199;-65
2023/08/29 02:03:44;;;;;;;0.90;0.90;;;;;;;20.79;nan;61678.22;5039265;28;20183;-65
2023/08/29 02:06:10;;;;;;;0.70;0.70;;;;;;;21.03;nan;61757.41;5041336;28;20197;-64
2023/08/29 02:08:36;;;;;;;0.88;0.88;;;;;;;20.89;nan;61723.91;5033629;28;20710;-67
2023/08/29 02:11:02;;;;;;;0.60;0.60;;;;;;;21.07;nan;61710.53;5035295;28;20171;-66
2023/08/29 02:13:28;;;;;;;0.73;0.73;;;;;;;21.00;nan;61718.19;5041591;28;20646;-66
2023/08/29 02:15:53;;;;;;;1.20;1.20;;;;;;;21.02;nan;61938.69;5041100;28;20232;-65
2023/08/29 02:18:18;;;;;;;0.73;0.73;;;;;;;20.83;nan;61740.47;5039035;28;20189;-66
2023/08/29 02:20:44;;;;;;;1.05;1.00;;;;;;;21.21;nan;61980.00;5034177;28;20207;-66
2023/08/29 02:23:09;;;;;;;1.00;1.00;;;;;;;21.20;nan;61839.09;5038162;28;20178;-67
2023/08/29 02:25:35;;;;;;;0.63;0.63;;;;;;;21.23;nan;61738.53;5042089;28;20181;-67
2023/08/29 02:28:00;;;;;;;0.60;0.60;;;;;;;21.08;nan;61870.19;5039812;28;20742;-65
2023/08/29 02:30:26;;;;;;;0.90;0.90;;;;;;;21.34;nan;61756.22;5037903;28;20241;-66
2023/08/29 02:32:51;;;;;;;0.65;0.65;;;;;;;21.19;nan;62016.69;5036520;28;20210;-67
2023/08/29 02:35:16;;;;;;;1.08;0.98;;;;;;;21.08;nan;61638.94;5040261;28;20179;-66
2023/08/29 02:37:43;;;;;;;0.80;0.80;;;;;;;21.15;nan;61776.81;5041653;28;20289;-65
2023/08/29 02:40:09;;;;;;;0.90;0.90;;;;;;;21.28;nan;61762.41;5040036;28;20206;-65
2023/08/29 02:42:36;;;;;;;0.50;0.50;;;;;;;21.24;nan;61767.69;5040186;28;20298;-64
2023/08/29 02:45:03;;;;;;;0.52;0.52;;;;;;;21.09;nan;61857.72;5040036;28;20191;-65
2023/08/29 02:47:28;;;;;;;0.63;0.63;;;;;;;21.05;nan;61681.72;5040116;28;20267;-65
2023/08/29 02:49:53;;;;;;;0.88;0.88;;;;;;;21.21;nan;61770.06;5041607;28;20277;-64
2023/08/29 02:52:19;;;;;;;0.85;0.85;;;;;;;21.20;nan;61755.34;5038813;28;20171;-66
2023/08/29 02:54:45;;;;;;;0.95;0.90;;;;;;;21.07;nan;61694.97;5038337;28;20183;-66
2023/08/29 02:57:10;;;;;;;1.50;1.40;;;;;;;21.18;nan;61795.22;5038649;28;20182;-66
2023/08/29 02:59:35;;;;;;;0.70;0.70;;;;;;;21.13;nan;61862.88;5036333;28;20178;-64
2023/08/29 03:02:02;;;;;;;0.90;0.90;;;;;;;;;;5033836;28;20694;-64
2023/08/29 03:04:29;;;;;;;0.80;0.80;;;;;;;21.29;nan;61866.94;5040731;28;20529;-66
2023/08/29 03:06:54;;;;;;;0.90;0.90;;;;;;;21.35;nan;61759.38;5044473;28;20190;-64
2023/08/29 03:09:20;;;;;;;0.60;0.60;;;;;;;21.44;nan;61774.78;5037927;28;20186;-66
2023/08/29 03:11:45;;;;;;;0.40;0.40;;;;;;;21.31;nan;61773.63;5041837;28;20180;-65
2023/08/29 03:14:11;;;;;;;0.63;0.63;;;;;;;21.23;nan;61793.09;5042945;28;20265;-63
2023/08/29 03:16:36;;;;;;;0.65;0.65;;;;;;;21.01;nan;61703.16;5045290;28;20656;-65
2023/08/29 03:19:02;;;;;;;0.77;0.70;;;;;;;21.19;nan;61806.75;5041328;28;20276;-65
2023/08/29 03:21:28;;;;;;;1.50;1.40;;;;;;;21.17;nan;61796.69;5039640;28;20253;-64
2023/08/29 03:23:54;;;;;;;0.40;0.40;;;;;;;21.14;nan;61751.72;5037701;28;20191;-65
2023/08/29 03:26:19;;;;;;;0.50;0.50;;;;;;;21.08;nan;61939.75;5035114;28;20183;-65
2023/08/29 03:28:45;;;;;;;0.60;0.60;;;;;;;20.96;nan;61827.38;5034575;28;20631;-65
2023/08/29 03:31:16;;;;;;;0.80;0.80;;;;;;;20.96;nan;61859.13;5037478;28;20270;-65
2023/08/29 03:33:44;;;;;;;0.90;0.90;;;;;;;20.95;nan;61901.56;5040289;28;20191;-65
2023/08/29 03:36:10;;;;;;;0.68;0.68;;;;;;;20.99;nan;61802.22;5040753;28;20600;-66
2023/08/29 03:38:37;;;;;;;0.68;0.68;;;;;;;20.75;nan;61948.97;5034395;28;20214;-66
2023/08/29 03:41:06;;;;;;;0.90;0.90;;;;;;;20.75;nan;61692.44;5039942;28;20256;-64
2023/08/29 03:43:33;;;;;;;0.50;0.50;;;;;;;20.87;nan;61960.00;5034548;28;20178;-64
2023/08/29 03:46:07;;;;;;;0.77;0.77;;;;;;;20.93;nan;61736.22;5040132;28;20225;-66
2023/08/29 03:48:33;;;;;;;1.00;0.80;;;;;;;20.73;nan;61662.16;5034866;28;20187;-64
2023/08/29 03:51:01;;;;;;;0.63;0.63;;;;;;;20.86;nan;61673.75;5040071;28;20187;-63
2023/08/29 03:53:26;;;;;;;1.48;1.38;;;;;;;21.20;nan;61748.13;5039854;28;20183;-63
2023/08/29 03:55:52;;;;;;;1.20;1.10;;;;;;;21.20;nan;61761.13;5039621;28;20278;-65
2023/08/29 03:58:17;;;;;;;1.15;1.10;;;;;;;21.10;nan;61773.69;5034541;28;20179;-63
2023/08/29 04:00:44;;;;;;;0.52;0.52;;;;;;;21.12;nan;61741.63;5038863;28;20646;-64
2023/08/29 04:03:10;;;;;;;0.60;0.60;;;;;;;20.90;nan;61839.31;5040978;28;20187;-65
2023/08/29 04:05:37;;;;;;;0.73;0.63;;;;;;;20.93;nan;61728.44;5040391;28;20643;-65
2023/08/29 04:08:06;;;;;;;1.55;1.45;;;;;;;21.02;nan;61888.75;5036459;28;20227;-64
2023/08/29 04:10:38;;;;;;;0.93;0.93;;;;;;;21.96;nan;61906.69;5036739;28;20191;-66
2023/08/29 04:13:04;;;;;;;2.65;1.88;;;;;;;22.74;nan;61918.72;5039423;28;20183;-63
2023/08/29 04:15:30;;;;;;;1.25;1.15;;;;;;;23.40;nan;62149.09;5052092;28;20189;-63
2023/08/29 04:17:55;;;;;;;1.50;0.95;;;;;;;23.99;nan;62079.50;5033031;28;20294;-63
2023/08/29 04:20:22;;;;;;;1.30;1.10;;;;;;;24.19;nan;62209.91;5035845;28;20271;-63
2023/08/29 04:22:48;;;;;;;1.33;1.23;;;;;;;24.42;nan;62170.25;5038526;28;20637;-64
2023/08/29 04:25:14;;;;;;;1.08;1.02;;;;;;;24.49;nan;62177.69;5041023;28;20215;-64
2023/08/29 04:27:40;;;;;;;1.42;1.33;;;;;;;24.45;nan;62147.56;5035973;28;20613;-64
2023/08/29 04:30:06;;;;;;;5.57;1.60;;;;;;;24.11;nan;62228.94;5040248;28;20179;-64
2023/08/29 04:32:34;;;;;;;0.98;0.90;;;;;;;23.98;nan;62125.91;5036476;28;20183;-64
2023/08/29 04:35:00;;;;;;;0.90;0.90;;;;;;;23.81;nan;62006.81;5037615;28;20184;-64
2023/08/29 04:37:25;;;;;;;0.50;0.50;;;;;;;23.85;nan;62100.09;5034941;28;20183;-66
2023/08/29 04:39:51;;;;;;;1.15;1.05;;;;;;;23.53;nan;62051.78;5043748;28;20183;-66
2023/08/29 04:42:16;;;;;;;0.85;0.85;;;;;;;23.25;nan;62281.22;5040514;28;20205;-66
2023/08/29 04:44:42;;;;;;;2.05;1.55;;;;;;;22.95;nan;61999.34;5039515;28;20241;-65
2023/08/29 04:47:07;;;;;;;1.02;0.98;;;;;;;23.00;nan;61936.72;5038485;28;20187;-64
2023/08/29 04:49:34;;;;;;;1.05;1.05;;;;;;;22.89;nan;61940.41;5041538;28;20688;-67
2023/08/29 04:52:00;;;;;;;0.80;0.80;;;;;;;22.57;nan;62018.63;5035498;28;20718;-65
2023/08/29 04:54:25;;;;;;;1.42;1.08;;;;;;;22.62;nan;61935.75;5039276;28;20309;-66
2023/08/29 04:56:51;;;;;;;0.73;0.73;;;;;;;22.55;nan;61803.34;5043065;28;20239;-64
2023/08/29 04:59:19;;;;;;;0.73;0.73;;;;;;;22.74;nan;62075.06;5039496;28;20174;-65
2023/08/29 05:01:45;;;;;;;0.70;0.70;;;;;;;22.83;nan;62048.81;5043090;28;20207;-65
2023/08/29 05:04:11;;;;;;;1.25;1.15;;;;;;;22.76;nan;61920.41;5036743;28;20183;-66
2023/08/29 05:06:36;;;;;;;1.00;0.95;;;;;;;23.00;nan;61997.22;5039516;28;20215;-66
2023/08/29 05:09:06;;;;;;;1.33;1.23;;;;;;;22.98;nan;61961.06;5039095;28;20255;-66
2023/08/29 05:11:31;;;;;;;0.80;0.80;;;;;;;22.88;nan;61924.22;5039641;28;20176;-65
2023/08/29 05:13:56;;;;;;;1.00;1.00;;;;;;;22.99;nan;61977.84;5043475;28;20183;-66
2023/08/29 05:16:22;;;;;;;1.02;1.02;;;;;;;22.98;nan;62077.78;5040667;28;20194;-66
2023/08/29 05:18:47;;;;;;;0.47;0.47;;;;;;;23.27;nan;62024.75;5040222;28;20187;-65
2023/08/29 05:21:13;;;;;;;0.80;0.80;;;;;;;23.40;nan;62052.59;5040784;28;20213;-64
2023/08/29 05:23:38;;;;;;;1.05;1.05;;;;;;;23.60;nan;62061.75;5040862;28;20190;-66
2023/08/29 05:26:04;;;;;;;0.63;0.63;;;;;;;23.46;nan;62014.53;5035453;28;20202;-65
2023/08/29 05:28:29;;;;;;;0.60;0.60;;;;;;;23.50;nan;62008.66;5040673;28;20179;-63
2023/08/29 05:30:55;;;;;;;0.77;0.77;;;;;;;23.63;nan;62007.78;5042141;28;20555;-64
2023/08/29 05:33:20;;;;;;;0.73;0.73;;;;;;;23.69;nan;62077.81;5041746;28;20187;-65
2023/08/29 05:35:46;;;;;;;1.00;1.00;;;;;;;23.57;nan;62293.16;5031219;28;20195;-67
2023/08/29 05:38:11;;;;;;;0.75;0.75;;;;;;;23.32;nan;61939.19;5032669;28;20191;-64
2023/08/29 05:40:36;;;;;;;0.65;0.65;;;;;;;23.39;nan;62025.38;5039316;28;20179;-64
2023/08/29 05:43:02;;;;;;;0.73;0.73;;;;;;;23.65;nan;62094.13;5032978;28;20178;-66
2023/08/29 05:45:27;;;;;;;0.90;0.88;;;;;;;23.68;nan;62136.66;5032232;28;20252;-66
2023/08/29 05:47:53;;;;;;;0.73;0.73;;;;;;;23.85;nan;62236.41;5039353;28;20618;-66
2023/08/29 05:50:18;;;;;;;1.05;1.05;;;;;;;24.33;nan;62230.53;5040804;28;20190;-65
2023/08/29 05:52:44;;;;;;;1.38;0.95;;;;;;;24.33;nan;62170.47;5039709;28;20187;-66
2023/08/29 05:55:09;;;;;;;0.60;0.60;;;;;;;24.46;nan;62304.91;5040108;28;20190;-65
2023/08/29 05:57:35;;;;;;;1.33;0.90;;;;;;;24.63;nan;62146.59;5039144;28;20183;-65
2023/08/29 06:00:00;;;;;;;0.70;0.70;;;;;;;24.77;nan;62141.06;5040204;28;20177;-66
2023/08/29 06:02:26;;;;;;;1.23;1.20;;;;;;;25.14;nan;62235.53;5036527;28;20246;-65
2023/08/29 06:04:51;;;;;;;1.00;1.00;;;;;;;25.22;nan;62317.31;5033567;28;20265;-66
2023/08/29 06:07:17;;;;;;;1.73;1.13;;;;;;;25.28;nan;62489.00;5034725;28;20265;-64
2023/08/29 06:09:42;;;;;;;1.65;1.20;;;;;;;25.34;nan;62304.88;5038727;28;20248;-65
2023/08/29 06:12:08;;;;;;;1.35;0.95;;;;;;;25.46;nan;62264.16;5039844;28;20191;-64
2023/08/29 06:14:34;;;;;;;0.60;0.60;;;;;;;25.70;nan;62371.59;5038272;28;20179;-64
2023/08/29 06:16:59;;;;;;;1.25;1.20;;;;;;;25.75;nan;62317.66;5035382;28;20261;-65
2023/08/29 06:19:25;;;;;;;0.68;0.68;;;;;;;25.93;nan;62387.38;5036401;28;20207;-67
2023/08/29 06:21:51;;;;;;;1.48;1.40;;;;;;;25.84;nan;62327.34;5038693;28;20201;-64
2023/08/29 06:24:16;;;;;;;0.77;0.77;;;;;;;26.12;nan;62432.66;5039240;28;20178;-65
2023/08/29 06:26:42;;;;;;;1.02;0.93;;;;;;;25.96;nan;62291.28;5038282;28;20177;-67
2023/08/29 06:29:07;;;;;;;0.93;0.93;;;;;;;26.19;nan;62589.41;5038942;28;20195;-66
2023/08/29 06:31:33;;;;;;;1.38;1.17;;;;;;;26.20;nan;62360.00;5035999;28;20185;-67
2023/08/29 06:33:59;;;;;;;1.65;1.52;;;;;;;26.40;nan;62455.66;5034146;28;20186;-67
2023/08/29 06:36:26;;;;;;;1.10;1.08;;;;;;;26.64;nan;62572.22;5038516;28;20183;-67
2023/08/29 06:38:51;;;;;;;0.50;0.50;;;;;;;26.53;nan;62410.22;5040021;28;20641;-65
2023/08/29 06:41:17;;;;;;;1.48;1.02;;;;;;;26.89;nan;62534.72;5039024;28;20195;-63
2023/08/29 06:43:42;;;;;;;1.77;1.35;;;;;;;26.71;nan;62596.56;5041116;28;20186;-64
2023/08/29 06:46:08;;;;;;;1.38;1.27;;;;;;;26.81;nan;62490.00;5040397;28;20202;-63
2023/08/29 06:48:33;;;;;;;1.17;1.13;;;;;;;26.42;nan;62421.81;5040435;28;20190;-64
2023/08/29 06:50:59;;;;;;;2.08;1.35;;;;;;;26.27;nan;62400.00;5038273;28;20614;-66
2023/08/29 06:53:26;;;;;;;0.88;0.85;;;;;;;26.35;nan;62388.19;5037357;28;20612;-64
2023/08/29 06:55:52;;;;;;;0.98;0.90;;;;;;;26.38;nan;62676.72;5041978;28;20671;-66
2023/08/29 06:58:17;;;;;;;0.90;0.90;;;;;;;26.11;nan;62478.66;5039834;28;20269;-65
2023/08/29 07:00:42;;;;;;;1.35;1.15;;;;;;;26.29;nan;62667.00;5038281;28;20183;-66
2023/08/29 07:03:08;;;;;;;2.28;1.50;;;;;;;26.57;nan;62449.44;5036962;28;20677;-66
2023/08/29 07:05:34;;;;;;;1.15;1.13;;;;;;;27.02;nan;62528.63;5037830;28;20249;-66
2023/08/29 07:07:59;;;;;;;1.52;1.42;;;;;;;27.11;nan;62502.75;5031444;28;20219;-63
2023/08/29 07:10:25;;;;;;;0.88;0.88;;;;;;;27.33;nan;62577.19;5031422;28;20262;-66
2023/08/29 07:12:50;;;;;;;0.93;0.93;;;;;;;27.14;nan;62762.78;5031319;28;20630;-66
2023/08/29 07:15:16;;;;;;;1.45;1.35;;;;;;;27.10;nan;62545.63;5036439;28;20669;-66
2023/08/29 07:17:41;;;;;;;1.30;1.20;;;;;;;27.49;nan;62637.53;5031480;28;20258;-64
2023/08/29 07:20:08;;;;;;;0.98;0.98;;;;;;;27.71;nan;62817.13;5031458;28;20182;-66
2023/08/29 07:22:40;;;;;;;0.63;0.63;;;;;;;27.76;nan;62704.66;5031074;28;20322;-67
2023/08/29 07:25:06;;;;;;;1.17;1.15;;;;;;;27.81;nan;62655.22;5032100;28;20191;-66
2023/08/29 07:27:31;;;;;;;5.63;1.20;;;;;;;27.77;nan;62834.53;5031274;28;20256;-67
2023/08/29 07:29:56;;;;;;;0.80;0.80;;;;;;;27.77;nan;62695.31;5031422;28;20179;-65
2023/08/29 07:32:22;;;;;;;0.75;0.75;;;;;;;27.57;nan;62712.34;5031558;28;20172;-65
2023/08/29 07:34:47;;;;;;;1.83;1.73;;;;;;;27.73;nan;62632.94;5031336;28;20172;-66
2023/08/29 07:37:13;;;;;;;1.05;1.05;;;;;;;27.76;nan;62620.59;5031069;28;20209;-66
2023/08/29 07:39:38;;;;;;;0.77;0.77;;;;;;;27.88;nan;62665.31;5031263;28;20262;-67
2023/08/29 07:42:04;;;;;;;1.17;1.10;;;;;;;28.27;nan;62762.00;5031581;28;20205;-65
2023/08/29 07:44:29;;;;;;;1.20;1.10;;;;;;;28.45;nan;62761.59;5031627;28;20182;-66
2023/08/29 07:46:56;;;;;;;1.58;1.48;;;;;;;28.46;nan;62718.06;5031200;28;20173;-65
2023/08/29 07:49:21;;;;;;;0.93;0.93;;;;;;;28.73;nan;62735.28;5035105;28;20626;-68
2023/08/29 07:51:48;;;;;;;1.08;1.08;;;;;;;28.34;nan;62828.47;5034525;28;20183;-66
2023/08/29 07:54:13;;;;;;;1.23;1.13;;;;;;;28.91;nan;62817.00;5033295;28;20182;-66
2023/08/29 07:56:39;;;;;;;1.20;1.10;;;;;;;23.11;nan;64228.34;5033764;28;20164;-64
2023/08/29 07:59:04;;;;;;;1.73;1.63;;;;;;;28.63;nan;62742.78;5035131;28;20281;-67
2023/08/29 08:01:30;;;;;;;1.67;1.58;;;;;;;28.74;nan;62755.44;5038532;28;20686;-65
2023/08/29 08:03:55;;;;;;;1.25;1.15;;;;;;;29.01;nan;62835.81;5034043;28;20564;-66
2023/08/29 08:06:21;;;;;;;1.50;1.30;;;;;;;29.14;nan;62931.75;5034384;28;20167;-66
2023/08/29 08:08:46;;;;;;;1.00;1.00;;;;;;;28.81;nan;62808.16;5034231;28;20225;-67
2023/08/29 08:11:11;;;;;;;1.73;1.63;;;;;;;28.65;nan;62762.94;5034581;28;20711;-65
2023/08/29 08:13:37;;;;;;;3.50;2.05;;;;;;;28.54;nan;62971.81;5041554;28;20175;-66
2023/08/29 08:16:02;;;;;;;0.90;0.90;;;;;;;28.84;nan;62855.78;5033454;28;20273;-67
2023/08/29 08:18:28;;;;;;;2.33;2.08;;;;;;;29.16;nan;62852.44;5034252;28;20618;-65
2023/08/29 08:20:53;;;;;;;2.22;2.05;;;;;;;28.67;nan;62696.84;5033957;28;20341;-67
2023/08/29 08:23:18;;;;;;;1.48;1.38;;;;;;;28.93;nan;62821.94;5034386;28;20265;-65
2023/08/29 08:25:44;;;;;;;2.50;1.92;;;;;;;28.92;nan;62780.75;5049891;28;20561;-66
2023/08/29 08:28:10;;;;;;;2.05;1.58;;;;;;;29.20;nan;62891.28;5032914;28;20561;-65
2023/08/29 08:30:37;;;;;;;0.88;0.88;;;;;;;28.89;nan;62888.44;5034169;28;20183;-67
2023/08/29 08:33:05;;;;;;;1.27;1.17;;;;;;;29.17;nan;62827.28;5034167;28;20198;-68
2023/08/29 08:35:30;;;;;;;2.10;1.48;;;;;;;29.03;nan;62869.69;5034120;28;20248;-68
2023/08/29 08:37:56;;;;;;;5.20;1.92;;;;;;;29.00;nan;62905.72;5033762;28;20580;-66
2023/08/29 08:40:21;;;;;;;1.40;1.30;;;;;;;29.28;nan;62882.00;5034289;28;20171;-65
2023/08/29 08:42:47;;;;;;;2.92;2.30;;;;;;;29.70;nan;62908.59;5033663;28;20198;-67
2023/08/29 08:45:14;;;;;;;1.90;1.50;;;;;;;29.98;nan;63006.69;5041104;28;20543;-65
2023/08/29 08:47:40;;;;;;;4.47;1.67;;;;;;;30.17;nan;63020.06;5033449;28;20217;-68
2023/08/29 08:50:09;;;;;;;1.58;1.48;;;;;;;30.13;nan;62944.84;5038481;28;20182;-64
2023/08/29 08:52:36;;;;;;;2.30;2.10;;;;;;;29.73;nan;62978.50;5034072;28;20182;-67
2023/08/29 08:55:02;;;;;;;3.05;2.22;;;;;;;29.63;nan;62890.63;5033649;28;20183;-64
2023/08/29 08:57:28;;;;;;;4.00;3.10;;;;;;;29.75;nan;63015.06;5033184;28;20262;-64
2023/08/29 08:59:54;;;;;;;1.98;1.80;;;;;;;29.99;nan;63062.63;5032946;28;20693;-67
2023/08/29 09:02:19;;;;;;;1.55;1.45;;;;;;;27.71;nan;62708.88;5033205;28;20205;-64
2023/08/29 09:04:45;;;;;;;1.95;1.75;;;;;;;30.03;nan;62994.00;5033070;28;20250;-67
2023/08/29 09:07:10;;;;;;;2.10;1.95;;;;;;;30.29;nan;63015.38;5033465;28;20289;-66
2023/08/29 09:09:36;;;;;;;2.80;2.22;;;;;;;30.01;nan;63001.66;5033407;28;20195;-65
2023/08/29 09:12:01;;;;;;;2.80;2.38;;;;;;;30.21;nan;63088.53;5033749;28;20174;-67
2023/08/29 09:14:27;;;;;;;2.65;2.33;;;;;;;30.05;nan;62988.38;5032178;28;20635;-66
2023/08/29 09:16:57;;;;;;;2.72;2.53;;;;;;;30.02;nan;62966.47;5033333;28;20179;-66
2023/08/29 09:19:23;;;;;;;2.58;2.38;;;;;;;30.18;nan;62971.09;5033044;28;20269;-66
2023/08/29 09:21:49;;;;;;;6.35;2.28;;;;;;;30.30;nan;63019.16;5033240;28;20202;-65
2023/08/29 09:24:34;;;;;;;2.13;1.73;;;;;;;30.41;nan;63010.13;5032639;28;20276;-68
2023/08/29 09:27:07;;;;;;;1.17;1.17;;;;;;;30.02;nan;62961.19;5032415;28;20582;-68
2023/08/29 09:29:33;;;;;;;3.33;2.67;;;;;;;30.26;nan;62982.91;5034859;28;20186;-66
2023/08/29 09:31:59;;;;;;;2.30;2.10;;;;;;;30.49;nan;63041.03;5033076;28;20221;-66
2023/08/29 09:34:30;;;;;;;2.08;1.88;;;;;;;30.55;nan;63036.81;5032240;28;20195;-69
2023/08/29 09:36:57;;;;;;;1.55;1.45;;;;;;;30.54;nan;63218.31;5034588;28;20189;-65
2023/08/29 09:39:22;;;;;;;1.35;1.25;;;;;;;30.86;nan;63114.69;5032581;28;20187;-68
2023/08/29 09:42:08;;;;;;;2.33;1.73;;;;;;;30.76;nan;63092.03;5032242;28;20194;-66
2023/08/29 09:44:38;;;;;;;1.77;1.33;;;;;;;30.55;nan;63150.28;5032315;28;20178;-66
2023/08/29 09:47:05;;;;;;;2.50;2.03;;;;;;;30.82;nan;63093.66;5032644;28;20163;-66
2023/08/29 09:49:47;;;;;;;3.00;2.08;;;;;;;30.55;nan;63185.16;5032410;28;20206;-65
2023/08/29 09:52:14;;;;;;;2.08;1.92;;;;;;;30.51;nan;63016.38;5032426;28;20586;-64
2023/08/29 09:54:52;;;;;;;1.45;1.35;;;;;;;30.74;nan;63087.13;5032079;28;20205;-67
2023/08/29 09:57:21;;;;;;;1.15;1.13;;;;;;;30.68;nan;63038.56;5032303;28;20182;-65
2023/08/29 09:59:50;;;;;;;2.05;1.85;;;;;;;30.40;nan;63035.38;5031965;28;20562;-66
2023/08/29 10:02:18;;;;;;;1.35;0.85;;;;;;;30.55;nan;62989.88;5031868;28;20211;-68
2023/08/29 10:04:54;;;;;;;1.13;1.10;;;;;;;30.80;nan;63049.69;5031937;28;20244;-67
2023/08/29 10:07:25;;;;;;;1.88;1.42;;;;;;;30.84;nan;63180.47;5031870;28;20218;-64
2023/08/29 10:09:52;;;;;;;1.88;0.98;;;;;;;30.97;nan;63190.16;5032487;28;20640;-65
2023/08/29 10:12:18;;;;;;;0.88;0.88;;;;;;;31.34;nan;63169.38;5031435;28;20726;-64
2023/08/29 10:14:44;;;;;;;1.33;1.05;;;;;;;31.68;nan;63213.25;5031885;28;20174;-64
2023/08/29 10:17:11;;;;;;;1.00;1.00;;;;;;;31.77;nan;63199.25;5031873;28;20167;-66
2023/08/29 10:19:38;;;;;;;1.10;0.80;;;;;;;32.11;nan;63251.06;5032213;28;20313;-65
2023/08/29 10:22:07;;;;;;;1.52;1.40;;;;;;;32.13;nan;63399.47;5031989;28;20237;-65
2023/08/29 10:24:35;;;;;;;0.75;0.75;;;;;;;32.20;nan;63243.50;5031862;28;20262;-68
2023/08/29 10:27:02;;;;;;;4.43;1.50;;;;;;;32.58;nan;63363.47;5031780;28;20590;-68
2023/08/29 10:29:28;;;;;;;1.00;1.00;;;;;;;32.87;nan;63446.72;5032387;28;20174;-66
2023/08/29 10:31:55;;;;;;;1.63;1.35;;;;;;;32.99;nan;63396.97;5031859;28;20232;-65
2023/08/29 10:34:21;;;;;;;0.82;0.82;;;;;;;33.43;nan;63460.47;5038920;28;20174;-65
2023/08/29 10:36:46;;;;;;;2.63;1.35;;;;;;;33.42;nan;63491.13;5039791;28;20181;-65
2023/08/29 10:39:15;;;;;;;1.60;1.10;;;;;;;33.66;nan;63640.28;5038610;28;20177;-65
2023/08/29 10:41:47;;;;;;;0.82;0.82;;;;;;;33.82;nan;63536.19;5042225;28;20237;-65
2023/08/29 10:44:31;;;;;;;0.90;0.88;;;;;;;33.92;nan;63704.31;5038468;28;20228;-65
2023/08/29 10:47:26;;;;;;;0.77;0.77;;;;;;;33.89;nan;63714.69;5040654;28;20178;-64
2023/08/29 10:50:03;;;;;;;0.80;0.80;;;;;;;34.07;nan;63629.38;5032998;28;20235;-65
2023/08/29 10:52:40;;;;;;;0.77;0.77;;;;;;;34.26;nan;63737.81;5038309;28;20174;-65
2023/08/29 10:55:22;;;;;;;0.73;0.73;;;;;;;34.49;nan;63815.50;5033918;28;20204;-67
2023/08/29 10:57:49;;;;;;;3.63;2.10;;;;;;;34.37;nan;63660.84;5015172;28;20174;-69
2023/08/29 11:00:17;;;;;;;0.60;0.60;;;;;;;34.51;nan;63722.19;5030383;28;20336;-66
2023/08/29 11:02:43;;;;;;;0.65;0.65;;;;;;;34.35;nan;63709.00;5034956;28;20209;-64
2023/08/29 11:05:10;;;;;;;1.67;1.58;;;;;;;34.49;nan;63751.19;5041898;28;20182;-64
2023/08/29 11:07:35;;;;;;;0.52;0.52;;;;;;;34.62;nan;63832.66;5031886;28;20309;-65
2023/08/29 11:10:20;;;;;;;0.57;0.57;;;;;;;34.51;nan;63791.25;5031377;28;20309;-67
2023/08/29 11:13:06;;;;;;;0.75;0.75;;;;;;;34.57;nan;63829.50;5032749;28;20681;-65
2023/08/29 11:15:49;;;;;;;1.45;1.35;;;;;;;34.89;nan;63832.09;5033487;28;20189;-66
2023/08/29 11:18:30;;;;;;;1.15;0.90;;;;;;;34.53;nan;63838.16;5027993;28;20266;-65
2023/08/29 11:20:55;;;;;;;1.67;1.08;;;;;;;34.41;nan;63911.88;5034113;28;20186;-66
2023/08/29 11:23:22;;;;;;;1.15;1.05;;;;;;;34.39;nan;63824.56;5035608;28;20252;-64
2023/08/29 11:25:51;;;;;;;0.90;0.90;;;;;;;34.25;nan;63750.50;5035402;28;20519;-66
2023/08/29 11:28:20;;;;;;;1.30;1.20;;;;;;;34.04;nan;63702.84;5037113;28;20650;-68
2023/08/29 11:30:46;;;;;;;0.98;0.90;;;;;;;33.85;nan;63685.59;5034889;28;20266;-68
2023/08/29 11:33:15;;;;;;;0.60;0.60;;;;;;;33.99;nan;63702.38;5035207;28;20624;-66
2023/08/29 11:35:42;;;;;;;0.80;0.80;;;;;;;33.57;nan;63683.47;5035298;28;20167;-67
2023/08/29 11:38:08;;;;;;;0.50;0.50;;;;;;;33.64;nan;63608.78;5037199;28;20182;-67
2023/08/29 11:40:34;;;;;;;0.93;0.75;;;;;;;33.45;nan;63576.19;5034949;28;20257;-67
2023/08/29 11:43:00;;;;;;;0.70;0.70;;;;;;;33.36;nan;63555.75;5034571;28;20290;-65
2023/08/29 11:45:26;;;;;;;0.57;0.57;;;;;;;33.41;nan;63614.56;5034801;28;20189;-68
2023/08/29 11:47:51;;;;;;;1.23;0.57;;;;;;;33.47;nan;63586.47;5035292;28;20178;-65
2023/08/29 11:50:17;;;;;;;2.83;1.52;;;;;;;33.38;nan;63459.41;5034596;28;20182;-65